createdAt,value
2018-05-03T00:01:59.209Z,52.43
2018-05-03T00:04:27.636Z,52.00
2018-05-03T00:06:56.040Z,54.15
2018-05-03T00:09:24.422Z,53.77
2018-05-03T00:11:52.841Z,52.85
2018-05-03T00:14:21.238Z,55.22
2018-05-03T00:16:49.643Z,55.03
2018-05-03T00:19:18.120Z,54.31
2018-05-03T00:21:46.514Z,53.90
2018-05-03T00:24:14.951Z,55.25
2018-05-03T00:26:43.404Z,55.69
2018-05-03T00:29:11.786Z,55.84
2018-05-03T00:31:40.248Z,56.04
2018-05-03T00:34:08.660Z,57.71
2018-05-03T00:36:37.039Z,58.02
2018-05-03T00:39:05.486Z,57.87
2018-05-03T00:41:34.803Z,56.84
2018-05-03T00:44:03.269Z,56.56
2018-05-03T00:46:31.672Z,56.14
2018-05-03T00:49:00.144Z,57.08
2018-05-03T00:51:28.559Z,56.74
2018-05-03T00:53:56.996Z,56.23
2018-05-03T00:56:25.415Z,55.90
2018-05-03T00:58:53.799Z,56.22
2018-05-03T01:01:22.264Z,56.61
2018-05-03T01:03:50.698Z,57.16
2018-05-03T01:06:19.124Z,57.58
2018-05-03T01:08:47.552Z,57.50
2018-05-03T01:11:15.993Z,57.68
2018-05-03T01:13:44.428Z,57.80
2018-05-03T01:16:12.961Z,59.22
2018-05-03T01:18:41.549Z,59.44
2018-05-03T01:21:09.999Z,59.14
2018-05-03T01:23:38.503Z,59.21
2018-05-03T01:26:06.871Z,59.67
2018-05-03T01:28:35.311Z,59.82
2018-05-03T01:31:03.736Z,60.07
2018-05-03T01:33:32.151Z,60.42
2018-05-03T01:36:12.647Z,59.45
2018-05-03T01:38:41.143Z,61.00
2018-05-03T01:41:09.593Z,61.92
2018-05-03T01:43:38.027Z,62.40
2018-05-03T01:46:06.469Z,62.31
2018-05-03T01:48:34.891Z,62.15
2018-05-03T01:51:03.332Z,62.59
2018-05-03T01:53:31.742Z,62.71
2018-05-03T01:56:00.189Z,63.61
2018-05-03T01:58:28.627Z,63.88
2018-05-03T02:00:57.078Z,63.41
2018-05-03T02:03:25.515Z,62.82
2018-05-03T02:05:53.925Z,63.10
2018-05-03T02:08:22.371Z,64.59
2018-05-03T02:10:50.778Z,64.26
2018-05-03T02:13:19.227Z,64.12
2018-05-03T02:15:47.639Z,66.39
2018-05-03T02:18:16.103Z,66.31
2018-05-03T02:20:44.556Z,66.18
2018-05-03T02:23:12.980Z,65.50
2018-05-03T02:25:41.428Z,65.41
2018-05-03T02:28:09.819Z,65.43
2018-05-03T02:30:38.267Z,65.41
2018-05-03T02:33:06.691Z,65.17
2018-05-03T02:35:35.155Z,65.17
2018-05-03T02:38:03.647Z,66.44
2018-05-03T02:40:32.103Z,65.96
2018-05-03T02:43:00.573Z,65.45
2018-05-03T02:45:28.976Z,65.43
2018-05-03T02:47:57.431Z,66.17
2018-05-03T02:50:25.862Z,66.15
2018-05-03T02:52:54.307Z,66.12
2018-05-03T02:55:22.707Z,66.25
2018-05-03T02:58:08.803Z,66.36
2018-05-03T03:00:54.925Z,67.62
2018-05-03T03:06:55.355Z,68.96
2018-05-03T03:09:41.490Z,69.78
2018-05-03T03:12:26.282Z,68.78
2018-05-03T03:15:12.397Z,68.39
2018-05-03T03:17:58.332Z,67.79
2018-05-03T03:20:55.171Z,68.20
2018-05-03T03:23:41.174Z,68.35
2018-05-03T03:29:43.589Z,68.61
2018-05-03T03:32:23.899Z,68.27
2018-05-03T03:35:00.234Z,68.71
2018-05-03T03:37:46.289Z,69.98
2018-05-03T03:40:26.454Z,69.71
2018-05-03T03:45:54.021Z,69.71
2018-05-03T03:48:22.592Z,68.31
2018-05-03T03:50:51.032Z,67.82
2018-05-03T03:53:19.662Z,68.22
2018-05-03T03:55:48.056Z,67.61
2018-05-03T03:58:16.497Z,67.05
2018-05-03T04:00:44.983Z,65.99
2018-05-03T04:03:13.636Z,65.51
2018-05-03T04:05:42.089Z,65.67
2018-05-03T04:08:10.488Z,65.58
2018-05-03T04:10:39.142Z,66.24
2018-05-03T04:13:07.609Z,65.48
2018-05-03T04:15:36.003Z,64.51
2018-05-03T04:21:18.828Z,65.64
2018-05-03T04:24:13.991Z,64.54
2018-05-03T04:26:42.509Z,64.56
2018-05-03T04:29:10.907Z,63.62
2018-05-03T04:31:39.463Z,63.21
2018-05-03T04:34:07.863Z,62.64
2018-05-03T04:36:36.320Z,63.09
2018-05-03T04:39:04.795Z,63.66
2018-05-03T04:41:33.230Z,63.83
2018-05-03T04:44:01.649Z,63.79
2018-05-03T04:46:30.122Z,63.42
2018-05-03T04:48:58.736Z,62.81
2018-05-03T04:51:27.211Z,61.09
2018-05-03T04:53:55.663Z,59.92
2018-05-03T04:56:24.071Z,60.15
2018-05-03T04:58:52.478Z,60.10
2018-05-03T05:01:20.982Z,59.87
2018-05-03T05:03:49.384Z,59.50
2018-05-03T05:06:17.957Z,59.84
2018-05-03T05:08:46.424Z,59.11
2018-05-03T05:11:14.895Z,58.51
2018-05-03T05:13:43.392Z,58.92
2018-05-03T05:16:12.015Z,59.30
2018-05-03T05:18:40.420Z,59.21
2018-05-03T05:21:08.952Z,58.50
2018-05-03T05:23:37.466Z,58.09
2018-05-03T05:26:05.913Z,57.65
2018-05-03T05:28:34.388Z,56.15
2018-05-03T05:31:02.801Z,55.03
2018-05-03T05:33:31.296Z,54.37
2018-05-03T05:35:59.732Z,54.06
2018-05-03T05:38:28.217Z,52.83
2018-05-03T05:40:56.742Z,52.69
2018-05-03T05:43:25.155Z,52.76
2018-05-03T05:45:53.756Z,53.82
2018-05-03T05:48:22.210Z,53.47
2018-05-03T05:50:50.651Z,54.25
2018-05-03T05:53:19.116Z,53.21
2018-05-03T05:55:48.445Z,52.99
2018-05-03T05:58:16.915Z,54.58
2018-05-03T06:00:45.370Z,52.85
2018-05-03T06:03:13.914Z,52.37
2018-05-03T06:05:42.388Z,50.33
2018-05-03T06:08:10.851Z,49.58
2018-05-03T06:10:39.266Z,49.37
2018-05-03T06:13:07.702Z,48.94
2018-05-03T06:15:36.243Z,48.21
2018-05-03T06:18:04.637Z,48.25
2018-05-03T06:20:33.089Z,47.94
2018-05-03T06:23:01.528Z,47.99
2018-05-03T06:25:30.130Z,47.47
2018-05-03T06:27:58.568Z,46.95
2018-05-03T06:30:26.975Z,47.46
2018-05-03T06:32:55.424Z,47.18
2018-05-03T06:35:23.841Z,47.89
2018-05-03T06:37:52.394Z,47.34
2018-05-03T06:40:20.827Z,48.43
2018-05-03T06:42:49.242Z,49.14
2018-05-03T06:45:17.829Z,49.71
2018-05-03T06:47:47.063Z,48.69
2018-05-03T06:50:15.534Z,48.24
2018-05-03T06:52:43.986Z,46.44
2018-05-03T06:55:12.439Z,44.97
2018-05-03T06:57:40.899Z,43.37
2018-05-03T07:00:09.371Z,42.33
2018-05-03T07:02:37.888Z,41.04
2018-05-03T07:05:06.421Z,42.01
2018-05-03T07:07:34.871Z,41.46
2018-05-03T07:10:03.437Z,40.75
2018-05-03T07:12:31.813Z,39.83
2018-05-03T07:15:00.255Z,39.87
2018-05-03T07:17:28.664Z,41.31
2018-05-03T07:19:57.107Z,42.34
2018-05-03T07:22:25.558Z,40.20
2018-05-03T07:24:53.984Z,39.44
2018-05-03T07:27:22.434Z,39.13
2018-05-03T07:29:50.844Z,37.56
2018-05-03T07:32:19.297Z,36.42
2018-05-03T07:34:47.733Z,35.73
2018-05-03T07:37:16.218Z,35.01
2018-05-03T07:39:44.649Z,37.38
2018-05-03T07:42:13.176Z,38.87
2018-05-03T07:44:41.591Z,37.66
2018-05-03T07:47:10.085Z,35.85
2018-05-03T07:49:38.573Z,34.91
2018-05-03T07:52:07.026Z,34.09
2018-05-03T07:54:35.480Z,33.67
2018-05-03T07:57:03.937Z,34.50
2018-05-03T07:59:32.390Z,33.46
2018-05-03T08:02:00.851Z,32.49
2018-05-03T08:04:29.278Z,32.56
2018-05-03T08:06:57.683Z,32.52
2018-05-03T08:09:26.127Z,31.53
2018-05-03T08:11:54.572Z,31.22
2018-05-03T08:14:23.039Z,32.01
2018-05-03T08:16:51.471Z,31.91
2018-05-03T08:19:19.891Z,32.04
2018-05-03T08:21:48.333Z,32.29
2018-05-03T08:24:16.816Z,32.68
2018-05-03T08:26:45.268Z,32.01
2018-05-03T08:29:13.701Z,33.12
2018-05-03T08:31:42.100Z,33.30
2018-05-03T08:34:10.581Z,32.71
2018-05-03T08:36:39.032Z,32.52
2018-05-03T08:39:07.443Z,31.14
2018-05-03T08:41:36.088Z,30.89
2018-05-03T08:44:04.564Z,29.53
2018-05-03T08:46:32.993Z,30.06
2018-05-03T08:49:01.383Z,30.55
2018-05-03T08:51:29.872Z,31.10
2018-05-03T08:53:58.322Z,31.28
2018-05-03T08:56:26.780Z,30.95
2018-05-03T08:58:55.235Z,30.46
2018-05-03T09:01:23.730Z,29.49
2018-05-03T09:03:52.126Z,29.98
2018-05-03T09:06:20.568Z,30.11
2018-05-03T09:08:49.051Z,30.43
2018-05-03T09:11:17.510Z,29.47
2018-05-03T09:13:45.960Z,29.09
2018-05-03T09:16:14.404Z,27.57
2018-05-03T09:18:42.856Z,27.17
2018-05-03T09:21:11.276Z,28.59
2018-05-03T09:23:39.746Z,27.97
2018-05-03T09:26:08.229Z,27.93
2018-05-03T09:28:36.719Z,27.78
2018-05-03T09:31:05.140Z,29.34
2018-05-03T09:33:33.569Z,29.45
2018-05-03T09:36:01.956Z,29.31
2018-05-03T09:38:30.415Z,29.48
2018-05-03T09:40:58.836Z,30.26
2018-05-03T09:43:27.386Z,30.38
2018-05-03T09:45:55.766Z,29.45
2018-05-03T09:48:24.203Z,27.74
2018-05-03T09:50:52.657Z,26.27
2018-05-03T09:53:21.076Z,26.89
2018-05-03T09:55:49.488Z,26.27
2018-05-03T09:58:17.936Z,26.24
2018-05-03T10:00:46.392Z,27.16
2018-05-03T10:03:14.923Z,26.97
2018-05-03T10:05:43.374Z,27.09
2018-05-03T10:08:11.806Z,28.72
2018-05-03T10:10:40.237Z,27.98
2018-05-03T10:13:08.765Z,27.65
2018-05-03T10:15:37.327Z,27.04
2018-05-03T10:18:05.807Z,25.84
2018-05-03T10:20:34.220Z,25.47
2018-05-03T10:23:02.799Z,26.72
2018-05-03T10:25:31.406Z,26.53
2018-05-03T10:27:59.858Z,27.07
2018-05-03T10:30:28.279Z,24.97
2018-05-03T10:32:56.722Z,24.08
2018-05-03T10:35:25.106Z,25.16
2018-05-03T10:37:53.550Z,27.52
2018-05-03T10:40:22.014Z,28.63
2018-05-03T10:42:50.415Z,27.92
2018-05-03T10:45:18.854Z,26.98
2018-05-03T10:47:47.286Z,27.05
2018-05-03T10:50:15.744Z,27.64
2018-05-03T10:52:44.182Z,27.68
2018-05-03T10:55:12.649Z,27.28
2018-05-03T10:57:41.129Z,26.68
2018-05-03T11:00:09.591Z,26.61
2018-05-03T11:02:40.167Z,26.49
2018-05-03T11:05:08.794Z,25.56
2018-05-03T11:07:37.152Z,26.14
2018-05-03T11:10:05.613Z,26.21
2018-05-03T11:12:34.026Z,27.00
2018-05-03T11:15:02.463Z,29.13
2018-05-03T11:17:30.860Z,32.48
2018-05-03T11:19:59.302Z,35.20
2018-05-03T11:22:27.699Z,33.87
2018-05-03T11:24:56.145Z,39.82
2018-05-03T11:27:24.632Z,39.18
2018-05-03T11:29:53.032Z,37.18
2018-05-03T11:32:21.471Z,35.83
2018-05-03T11:34:49.899Z,37.43
2018-05-03T11:37:18.490Z,46.33
2018-05-03T11:39:46.920Z,50.76
2018-05-03T11:42:15.346Z,60.32
2018-05-03T11:44:43.754Z,65.77
2018-05-03T11:47:12.272Z,61.23
2018-05-03T11:49:40.826Z,70.28
2018-05-03T11:52:09.295Z,72.44
2018-05-03T11:54:37.729Z,74.28
2018-05-03T11:57:06.277Z,75.74
2018-05-03T11:59:34.750Z,73.55
2018-05-03T12:02:03.205Z,74.22
2018-05-03T12:04:31.640Z,72.76
2018-05-03T12:07:00.083Z,71.10
2018-05-03T12:09:28.514Z,72.16
2018-05-03T12:11:56.948Z,73.81
2018-05-03T12:14:25.344Z,75.05
2018-05-03T12:16:53.820Z,64.53
2018-05-03T12:19:22.262Z,64.62
2018-05-03T12:21:50.713Z,69.52
2018-05-03T12:24:19.255Z,70.04
2018-05-03T12:26:47.623Z,75.33
2018-05-03T12:29:16.092Z,76.86
2018-05-03T12:31:44.528Z,77.57
2018-05-03T12:34:13.183Z,79.09
2018-05-03T12:36:41.692Z,78.53
2018-05-03T12:39:10.143Z,75.93
2018-05-03T12:41:38.589Z,76.03
2018-05-03T12:44:07.044Z,77.09
2018-05-03T12:46:35.504Z,76.68
2018-05-03T12:49:03.948Z,76.71
2018-05-03T12:51:32.363Z,75.60
2018-05-03T12:54:00.855Z,76.68
2018-05-03T12:56:29.455Z,77.80
2018-05-03T12:58:57.857Z,77.74
2018-05-03T13:01:26.294Z,77.49
2018-05-03T13:03:54.765Z,75.93
2018-05-03T13:06:23.183Z,77.55
2018-05-03T13:08:51.636Z,79.63
2018-05-03T13:11:20.052Z,76.99
2018-05-03T13:13:48.494Z,78.48
2018-05-03T13:16:16.860Z,78.86
2018-05-03T13:18:45.332Z,78.96
2018-05-03T13:21:13.753Z,79.50
2018-05-03T13:23:42.203Z,81.00
2018-05-03T13:26:10.647Z,81.23
2018-05-03T13:28:39.092Z,80.10
2018-05-03T13:31:07.551Z,79.72
2018-05-03T13:33:35.948Z,80.68
2018-05-03T13:36:04.427Z,82.08
2018-05-03T13:38:32.852Z,83.23
2018-05-03T13:41:01.252Z,82.80
2018-05-03T13:43:29.744Z,82.58
2018-05-03T13:45:58.158Z,83.99
2018-05-03T13:48:26.551Z,83.82
2018-05-03T13:50:55.050Z,83.54
2018-05-03T13:53:23.535Z,83.02
2018-05-03T13:55:51.972Z,84.00
2018-05-03T13:58:20.423Z,84.42
2018-05-03T14:00:48.896Z,85.10
2018-05-03T14:03:17.351Z,84.33
2018-05-03T14:05:45.792Z,82.60
2018-05-03T14:08:14.214Z,84.00
2018-05-03T14:10:42.681Z,83.58
2018-05-03T14:13:11.134Z,84.08
2018-05-03T14:15:39.614Z,83.52
2018-05-03T14:18:08.064Z,81.34
2018-05-03T14:20:36.502Z,81.46
2018-05-03T14:23:04.936Z,82.57
2018-05-03T14:25:33.377Z,81.78
2018-05-03T14:28:01.791Z,80.39
2018-05-03T14:30:30.251Z,80.37
2018-05-03T14:32:58.798Z,79.98
2018-05-03T14:35:27.254Z,80.14
2018-05-03T14:37:55.691Z,80.81
2018-05-03T14:40:24.355Z,81.06
2018-05-03T14:42:52.841Z,76.45
2018-05-03T14:45:21.241Z,75.15
2018-05-03T14:47:49.695Z,76.20
2018-05-03T14:50:18.123Z,73.60
2018-05-03T14:52:46.967Z,73.04
2018-05-03T14:55:15.521Z,73.02
2018-05-03T14:57:43.951Z,73.74
2018-05-03T15:00:12.398Z,73.86
2018-05-03T15:02:40.862Z,74.13
2018-05-03T15:05:09.536Z,74.46
2018-05-03T15:07:37.983Z,71.89
2018-05-03T15:10:06.448Z,72.22
2018-05-03T15:12:34.937Z,72.33
2018-05-03T15:15:03.379Z,71.59
2018-05-03T15:17:31.836Z,70.22
2018-05-03T15:20:00.270Z,70.68
2018-05-03T15:22:28.703Z,71.51
2018-05-03T15:24:57.151Z,68.29
2018-05-03T15:27:25.624Z,66.12
2018-05-03T15:29:54.085Z,61.46
2018-05-03T15:32:22.547Z,60.71
2018-05-03T15:34:50.983Z,61.35
2018-05-03T15:37:19.490Z,61.83
2018-05-03T15:39:47.891Z,61.63
2018-05-03T15:42:16.359Z,64.30
2018-05-03T15:44:44.832Z,64.87
2018-05-03T15:47:13.284Z,63.82
2018-05-03T15:49:41.705Z,65.58
2018-05-03T15:52:10.095Z,65.05
2018-05-03T15:54:38.531Z,66.90
2018-05-03T15:57:07.028Z,68.71
2018-05-03T15:59:35.499Z,68.86
2018-05-03T16:02:03.943Z,67.48
2018-05-03T16:04:32.404Z,68.72
2018-05-03T16:07:00.795Z,70.35
2018-05-03T16:09:29.296Z,70.68
2018-05-03T16:11:57.673Z,71.83
2018-05-03T16:14:26.126Z,72.30
2018-05-03T16:16:54.507Z,70.99
2018-05-03T16:19:22.929Z,71.49
2018-05-03T16:21:51.409Z,70.87
2018-05-03T16:24:19.870Z,70.69
2018-05-03T16:26:48.347Z,70.26
2018-05-03T16:29:16.746Z,71.69
2018-05-03T16:31:45.152Z,72.28
2018-05-03T16:34:13.600Z,71.82
2018-05-03T16:36:42.188Z,72.33
2018-05-03T16:39:10.603Z,72.63
2018-05-03T16:41:39.072Z,73.21
2018-05-03T16:44:07.472Z,74.36
2018-05-03T16:46:35.923Z,74.82
2018-05-03T16:49:04.372Z,76.35
2018-05-03T16:51:32.846Z,75.35
2018-05-03T16:54:01.355Z,74.96
2018-05-03T16:56:29.763Z,75.10
2018-05-03T16:58:59.013Z,75.17
2018-05-03T17:01:27.473Z,74.96
2018-05-03T17:03:55.928Z,74.56
2018-05-03T17:06:24.413Z,74.93
2018-05-03T17:08:52.843Z,73.10
2018-05-03T17:11:21.327Z,74.09
2018-05-03T17:13:49.918Z,74.49
2018-05-03T17:16:18.438Z,75.78
2018-05-03T17:18:47.090Z,75.01
2018-05-03T17:21:15.501Z,75.32
2018-05-03T17:23:43.963Z,76.41
2018-05-03T17:26:12.349Z,76.19
2018-05-03T17:28:40.799Z,76.24
2018-05-03T17:31:09.212Z,77.19
2018-05-03T17:33:37.636Z,76.79
2018-05-03T17:36:06.118Z,77.68
2018-05-03T17:38:34.535Z,76.91
2018-05-03T17:41:02.991Z,77.22
2018-05-03T17:43:31.422Z,76.91
2018-05-03T17:45:59.852Z,77.07
2018-05-03T17:48:28.274Z,78.57
2018-05-03T17:50:56.701Z,77.96
2018-05-03T17:53:25.184Z,77.03
2018-05-03T17:55:53.609Z,77.20
2018-05-03T17:58:22.085Z,77.07
2018-05-03T18:00:50.492Z,76.13
2018-05-03T18:03:19.056Z,71.89
2018-05-03T18:05:47.491Z,69.12
2018-05-03T18:08:15.902Z,67.67
2018-05-03T18:10:44.460Z,68.31
2018-05-03T18:13:12.902Z,67.20
2018-05-03T18:15:41.566Z,67.81
2018-05-03T18:18:09.970Z,66.94
2018-05-03T18:20:38.391Z,66.66
2018-05-03T18:23:06.922Z,65.38
2018-05-03T18:25:35.362Z,65.45
2018-05-03T18:28:03.833Z,65.23
2018-05-03T18:30:32.290Z,64.74
2018-05-03T18:33:00.706Z,64.75
2018-05-03T18:35:29.163Z,63.22
2018-05-03T18:37:57.594Z,62.66
2018-05-03T18:40:26.014Z,62.61
2018-05-03T18:42:54.463Z,62.58
2018-05-03T18:45:22.884Z,62.93
2018-05-03T18:47:51.380Z,61.84
2018-05-03T18:50:19.841Z,61.56
2018-05-03T18:52:48.287Z,62.29
2018-05-03T18:55:16.784Z,61.69
2018-05-03T18:57:45.191Z,60.61
2018-05-03T19:00:13.600Z,60.71
2018-05-03T19:02:42.003Z,61.41
2018-05-03T19:05:10.452Z,61.36
2018-05-03T19:07:38.890Z,61.60
2018-05-03T19:10:07.395Z,61.40
2018-05-03T19:12:35.815Z,61.22
2018-05-03T19:15:04.351Z,61.71
2018-05-03T19:17:32.825Z,62.00
2018-05-03T19:20:01.323Z,61.90
2018-05-03T19:22:29.752Z,62.87
2018-05-03T19:24:58.143Z,62.34
2018-05-03T19:27:26.646Z,62.30
2018-05-03T19:29:55.075Z,62.08
2018-05-03T19:32:23.560Z,62.37
2018-05-03T19:34:52.381Z,61.94
2018-05-03T19:37:20.805Z,62.38
2018-05-03T19:39:49.264Z,62.48
2018-05-03T19:42:18.152Z,63.07
2018-05-03T19:44:46.575Z,62.93
2018-05-03T19:47:15.004Z,62.90
2018-05-03T19:49:43.926Z,63.22
2018-05-03T19:52:12.340Z,63.90
2018-05-03T19:54:40.802Z,64.42
2018-05-03T19:57:09.769Z,65.00
2018-05-03T19:59:38.226Z,64.90
2018-05-03T20:02:06.647Z,65.07
2018-05-03T20:04:35.716Z,65.33
2018-05-03T20:07:04.169Z,65.43
2018-05-03T20:09:32.582Z,65.87
2018-05-03T20:12:01.269Z,65.98
2018-05-03T20:14:29.700Z,66.19
2018-05-03T20:16:58.244Z,65.34
2018-05-03T20:19:26.710Z,65.67
2018-05-03T20:21:55.131Z,65.96
2018-05-03T20:24:23.544Z,65.18
2018-05-03T20:26:52.417Z,65.62
2018-05-03T20:29:20.843Z,65.67
2018-05-03T20:31:49.268Z,64.94
2018-05-03T20:34:18.115Z,64.79
2018-05-03T20:36:46.582Z,64.65
2018-05-03T20:39:14.979Z,64.21
2018-05-03T20:41:43.781Z,63.83
2018-05-03T20:44:12.233Z,64.51
2018-05-03T20:46:40.637Z,64.29
2018-05-03T20:49:09.432Z,64.25
2018-05-03T20:51:37.854Z,64.66
2018-05-03T20:54:06.255Z,65.21
2018-05-03T20:56:34.744Z,65.88
2018-05-03T20:59:03.167Z,66.38
2018-05-03T21:01:31.603Z,66.57
2018-05-03T21:04:00.606Z,66.06
2018-05-03T21:06:29.012Z,66.22
2018-05-03T21:08:57.442Z,66.70
2018-05-03T21:11:25.915Z,66.11
2018-05-03T21:13:54.393Z,65.90
2018-05-03T21:16:22.943Z,66.11
2018-05-03T21:18:51.396Z,66.35
2018-05-03T21:21:19.809Z,66.16
2018-05-03T21:23:48.288Z,65.63
2018-05-03T21:26:16.866Z,65.37
2018-05-03T21:28:45.215Z,65.94
2018-05-03T21:31:13.616Z,65.34
2018-05-03T21:33:42.498Z,65.56
2018-05-03T21:36:10.915Z,65.47
2018-05-03T21:38:39.347Z,65.49
2018-05-03T21:41:08.155Z,64.30
2018-05-03T21:43:36.579Z,64.30
2018-05-03T21:46:04.975Z,63.93
2018-05-03T21:48:33.588Z,63.82
2018-05-03T21:51:02.007Z,64.12
2018-05-03T21:53:30.406Z,63.81
2018-05-03T21:55:58.844Z,63.86
2018-05-03T21:58:27.304Z,64.07
2018-05-03T22:00:55.753Z,64.26
2018-05-03T22:03:24.563Z,63.74
2018-05-03T22:05:53.011Z,64.05
2018-05-03T22:08:21.404Z,63.67
2018-05-03T22:10:50.248Z,63.59
2018-05-03T22:13:18.677Z,63.27
2018-05-03T22:15:47.063Z,63.04
2018-05-03T22:18:15.807Z,63.37
2018-05-03T22:20:44.199Z,63.04
2018-05-03T22:23:12.592Z,63.05
2018-05-03T22:25:41.435Z,63.50
2018-05-03T22:28:09.838Z,62.83
2018-05-03T22:30:38.253Z,62.96
2018-05-03T22:33:07.088Z,62.96
2018-05-03T22:35:35.508Z,62.49
2018-05-03T22:38:03.926Z,63.07
2018-05-03T22:40:32.366Z,62.87
2018-05-03T22:43:00.771Z,62.89
2018-05-03T22:45:29.219Z,62.95
2018-05-03T22:47:57.983Z,63.26
2018-05-03T22:50:26.390Z,63.02
2018-05-03T22:52:54.829Z,63.06
2018-05-03T22:55:23.336Z,63.21
2018-05-03T22:57:51.752Z,63.16
2018-05-03T23:00:20.159Z,63.55
2018-05-03T23:02:48.606Z,63.52
2018-05-03T23:05:17.003Z,63.65
2018-05-03T23:07:45.416Z,63.72
2018-05-03T23:10:14.008Z,63.79
2018-05-03T23:12:42.439Z,63.71
2018-05-03T23:15:10.868Z,63.25
2018-05-03T23:17:39.348Z,63.34
2018-05-03T23:20:07.786Z,63.17
2018-05-03T23:22:36.209Z,63.41
2018-05-03T23:25:04.833Z,63.70
2018-05-03T23:27:33.271Z,63.54
2018-05-03T23:30:01.724Z,63.55
2018-05-03T23:32:30.172Z,63.09
2018-05-03T23:34:58.574Z,63.66
2018-05-03T23:37:26.984Z,63.32
2018-05-03T23:39:55.594Z,63.21
2018-05-03T23:42:23.987Z,63.14
2018-05-03T23:44:52.392Z,63.19
2018-05-03T23:47:20.836Z,62.83
2018-05-03T23:49:49.266Z,62.45
2018-05-03T23:52:17.685Z,62.35
2018-05-03T23:54:46.407Z,62.05
2018-05-03T23:57:14.855Z,62.12
2018-05-03T23:59:43.305Z,62.13
